Тобольск

СКИДКИ НА СМАРТФОНЫ!

Карта отелей и гостиниц, располагающихся рядом с аэропортом Тобольск :

Тобольск Тюменская область 58° 8' 8.7612" N, 68° 13' 47.0388" E
Код аэродрома ИКАО
USTO
Код аэродрома RU
УСТО
Координаты
N58.13577° E068.22973°
Превышение над уровнем моря
45
Основная полоса
07/25
Курс магнитный
072,1/252,1
Длина основной ВПП
1283
Ширина основной ВПП
40
Покрытие основной ВПП
Твёрдое (металл)
Освещение ВПП
Нет
Тип: 
Аэродром
Класс аэродрома: 
Принадлежность: 
ГА
Статус: 
Действующий
Сайт: 
E-mail аэродрома: 
tobolckavia@mail.ru
Страна: 
Россия
Регион: 
Тюменская область
Город: 
Дополнительная информация: 
Оператор: ОАО "Аэропорт Рощино". ИВПП (металл) для полётов самолётов непригодна (частично демонтирована, реальная длина 850 м). На ИВПП оборудована ВП.

Скидки на навигаторы!

Найти трансфер

С помощью этой формы Вы можете найти трансфер из аэропорта Тобольск в город, аэропорт или вокзал:

Погода в аэропортах:

Авиационная погода в Сургуте

Регион: 
Погода METAR: 
USRR 190300Z 34004MPS 9999 -SHRA SCT010 BKN017CB 10/09 Q1021 R25/290060 NOSIG RMK QFE760
Время наблюдения
2022-08-19T03:00:00Z
Температура C
10.0
Точка росы
9.0
Направление ветра
340
Скорость ветра (узлы)
8
Метео видимость
6.21
Облачность
SCT
BKN
Нижняя граница облачности (футы)
1000
1700
Явления погоды
-SHRA
Условия полета
MVFR
Аэропорт подробнее: 
SCT – разбросанная отдельная облачность; BKN – значительная (рассеянная, разорванная) облачность;
-SHRA - слабый ливневой дождь;

Авиационная погода в Усть-Каменогорске

Регион: 
Погода METAR: 
UASK 190255Z 25002MPS 220V330 2100 BR BCFG SCT004 10/07 Q1015 TEMPO 0200 FG BKN002 RMK QBB120 QFE736/0981
Время наблюдения
2022-08-19T02:55:00Z
Температура C
10.0
Точка росы
7.0
Направление ветра
250
Скорость ветра (узлы)
4
Метео видимость
1.3
Облачность
SCT
Нижняя граница облачности (футы)
400
Явления погоды
BR BCFG
Условия полета
IFR
Аэропорт подробнее: 
SCT – разбросанная отдельная облачность;
FG – туман (небо не видно, температура воздуха выше нуля или ноль); BR – дымка (видимость от 1 до 9 км);

Авиационная погода в Стамбуле

Регион: 
Погода METAR: 
LTFM 190050Z 32006KT 0400 R35R/0900N R17L/0325N R34L/0600N R36/0650D FG VV001 23/23 Q1010 NOSIG RMK RWY17L 29005KT RWY34L 31006KT RWY16R 28003KT RWY36 30004KT RWY18 29005KT
Время наблюдения
2022-08-19T00:50:00Z
Температура C
23.0
Точка росы
23.0
Направление ветра
320
Скорость ветра (узлы)
6
Метео видимость
0.25
Облачность
OVX
Нижняя граница облачности (футы)
0
Явления погоды
FG
Условия полета
LIFR
FG – туман (небо не видно, температура воздуха выше нуля или ноль);

Авиационная погода в аэропорту Имени Алексея Леонова

Регион: 
Погода METAR: 
UNEE 190100Z 12001MPS 3800 BR FEW001 06/06 Q1012 R23/CLRD60 NOSIG RMK QBB050 QFE736
Время наблюдения
2022-08-19T01:00:00Z
Температура C
6.0
Точка росы
6.0
Направление ветра
120
Скорость ветра (узлы)
2
Метео видимость
2.36
Облачность
FEW
Нижняя граница облачности (футы)
100
Явления погоды
BR
Условия полета
IFR
Аэропорт подробнее: 
FEW – незначительная облачность;
BR – дымка (видимость от 1 до 9 км);